sensor_id;sensor_type;location;lat;lon;timestamp;P1;durP1;ratioP1;P2;durP2;ratioP2
63930;SDS011;50111;48.114;-2.066;2022-07-23T00:00:13;7.38;;;3.22;;
63930;SDS011;50111;48.114;-2.066;2022-07-23T00:02:39;6.68;;;3.13;;
63930;SDS011;50111;48.114;-2.066;2022-07-23T00:05:05;9.80;;;3.53;;
63930;SDS011;50111;48.114;-2.066;2022-07-23T00:07:31;8.55;;;3.85;;
63930;SDS011;50111;48.114;-2.066;2022-07-23T00:09:57;8.70;;;3.13;;
63930;SDS011;50111;48.114;-2.066;2022-07-23T00:12:23;7.68;;;3.17;;
63930;SDS011;50111;48.114;-2.066;2022-07-23T00:14:50;6.47;;;3.33;;
63930;SDS011;50111;48.114;-2.066;2022-07-23T00:17:16;4.97;;;3.08;;
63930;SDS011;50111;48.114;-2.066;2022-07-23T00:19:42;7.38;;;3.40;;
63930;SDS011;50111;48.114;-2.066;2022-07-23T00:22:08;6.90;;;2.90;;
63930;SDS011;50111;48.114;-2.066;2022-07-23T00:24:34;6.22;;;3.70;;
63930;SDS011;50111;48.114;-2.066;2022-07-23T00:27:00;6.25;;;3.28;;
63930;SDS011;50111;48.114;-2.066;2022-07-23T00:29:26;7.28;;;3.00;;
63930;SDS011;50111;48.114;-2.066;2022-07-23T00:31:52;6.22;;;3.00;;
63930;SDS011;50111;48.114;-2.066;2022-07-23T00:34:18;6.93;;;3.40;;
63930;SDS011;50111;48.114;-2.066;2022-07-23T00:36:44;6.43;;;3.17;;
63930;SDS011;50111;48.114;-2.066;2022-07-23T00:39:10;6.40;;;3.22;;
63930;SDS011;50111;48.114;-2.066;2022-07-23T00:41:36;6.47;;;2.88;;
63930;SDS011;50111;48.114;-2.066;2022-07-23T00:47:00;6.15;;;3.00;;
63930;SDS011;50111;48.114;-2.066;2022-07-23T00:49:27;5.13;;;2.90;;
63930;SDS011;50111;48.114;-2.066;2022-07-23T00:51:53;5.47;;;3.10;;
63930;SDS011;50111;48.114;-2.066;2022-07-23T00:54:21;5.45;;;3.20;;
63930;SDS011;50111;48.114;-2.066;2022-07-23T00:56:47;9.10;;;3.38;;
63930;SDS011;50111;48.114;-2.066;2022-07-23T00:59:13;7.40;;;3.50;;
63930;SDS011;50111;48.114;-2.066;2022-07-23T01:01:39;5.95;;;2.95;;
63930;SDS011;50111;48.114;-2.066;2022-07-23T01:04:05;7.40;;;3.88;;
63930;SDS011;50111;48.114;-2.066;2022-07-23T01:06:35;5.85;;;3.00;;
63930;SDS011;50111;48.114;-2.066;2022-07-23T01:09:01;5.53;;;3.38;;
63930;SDS011;50111;48.114;-2.066;2022-07-23T01:11:27;6.68;;;3.70;;
63930;SDS011;50111;48.114;-2.066;2022-07-23T01:13:53;7.15;;;3.10;;
63930;SDS011;50111;48.114;-2.066;2022-07-23T01:16:19;3.95;;;3.28;;
63930;SDS011;50111;48.114;-2.066;2022-07-23T01:18:46;4.68;;;3.28;;
63930;SDS011;50111;48.114;-2.066;2022-07-23T01:21:12;5.38;;;3.53;;
63930;SDS011;50111;48.114;-2.066;2022-07-23T01:23:38;8.57;;;4.43;;
63930;SDS011;50111;48.114;-2.066;2022-07-23T01:26:04;6.45;;;3.17;;
63930;SDS011;50111;48.114;-2.066;2022-07-23T01:28:30;5.32;;;3.22;;
63930;SDS011;50111;48.114;-2.066;2022-07-23T01:30:56;7.38;;;3.35;;
63930;SDS011;50111;48.114;-2.066;2022-07-23T01:33:22;5.88;;;3.60;;
63930;SDS011;50111;48.114;-2.066;2022-07-23T01:35:48;6.50;;;3.60;;
63930;SDS011;50111;48.114;-2.066;2022-07-23T01:38:14;7.95;;;3.72;;
63930;SDS011;50111;48.114;-2.066;2022-07-23T01:40:40;8.73;;;4.75;;
63930;SDS011;50111;48.114;-2.066;2022-07-23T01:43:06;8.98;;;3.95;;
63930;SDS011;50111;48.114;-2.066;2022-07-23T01:45:32;5.30;;;3.25;;
63930;SDS011;50111;48.114;-2.066;2022-07-23T01:47:58;7.53;;;3.40;;
63930;SDS011;50111;48.114;-2.066;2022-07-23T01:50:24;9.52;;;3.70;;
63930;SDS011;50111;48.114;-2.066;2022-07-23T01:52:50;6.80;;;3.72;;
63930;SDS011;50111;48.114;-2.066;2022-07-23T01:55:16;5.95;;;3.25;;
63930;SDS011;50111;48.114;-2.066;2022-07-23T01:57:42;5.65;;;3.90;;
63930;SDS011;50111;48.114;-2.066;2022-07-23T02:00:08;6.22;;;3.58;;
63930;SDS011;50111;48.114;-2.066;2022-07-23T02:02:34;6.15;;;3.65;;
63930;SDS011;50111;48.114;-2.066;2022-07-23T02:05:00;8.57;;;3.53;;
63930;SDS011;50111;48.114;-2.066;2022-07-23T02:07:27;5.95;;;3.65;;
63930;SDS011;50111;48.114;-2.066;2022-07-23T02:09:54;6.18;;;4.00;;
63930;SDS011;50111;48.114;-2.066;2022-07-23T02:12:20;6.75;;;3.80;;
63930;SDS011;50111;48.114;-2.066;2022-07-23T02:14:46;8.82;;;3.60;;
63930;SDS011;50111;48.114;-2.066;2022-07-23T02:17:12;6.63;;;3.08;;
63930;SDS011;50111;48.114;-2.066;2022-07-23T02:19:38;5.85;;;3.40;;
63930;SDS011;50111;48.114;-2.066;2022-07-23T02:22:04;4.95;;;3.35;;
63930;SDS011;50111;48.114;-2.066;2022-07-23T02:24:30;8.38;;;3.80;;
63930;SDS011;50111;48.114;-2.066;2022-07-23T02:26:56;7.70;;;4.05;;
63930;SDS011;50111;48.114;-2.066;2022-07-23T02:29:22;5.82;;;3.40;;
63930;SDS011;50111;48.114;-2.066;2022-07-23T02:31:48;8.82;;;4.05;;
63930;SDS011;50111;48.114;-2.066;2022-07-23T02:34:14;6.68;;;3.90;;
63930;SDS011;50111;48.114;-2.066;2022-07-23T02:36:40;8.35;;;4.20;;
63930;SDS011;50111;48.114;-2.066;2022-07-23T02:39:06;8.52;;;3.67;;
63930;SDS011;50111;48.114;-2.066;2022-07-23T02:41:32;8.55;;;4.38;;
63930;SDS011;50111;48.114;-2.066;2022-07-23T02:43:58;8.35;;;3.83;;
63930;SDS011;50111;48.114;-2.066;2022-07-23T02:46:24;5.80;;;3.42;;
63930;SDS011;50111;48.114;-2.066;2022-07-23T02:48:50;10.20;;;3.78;;
63930;SDS011;50111;48.114;-2.066;2022-07-23T02:51:16;6.70;;;3.88;;
63930;SDS011;50111;48.114;-2.066;2022-07-23T02:53:42;5.50;;;3.80;;
63930;SDS011;50111;48.114;-2.066;2022-07-23T02:56:08;6.95;;;4.05;;
63930;SDS011;50111;48.114;-2.066;2022-07-23T02:58:34;6.65;;;4.00;;
63930;SDS011;50111;48.114;-2.066;2022-07-23T03:01:00;9.73;;;4.80;;
63930;SDS011;50111;48.114;-2.066;2022-07-23T03:03:26;7.50;;;4.07;;
63930;SDS011;50111;48.114;-2.066;2022-07-23T03:05:52;9.60;;;3.78;;
63930;SDS011;50111;48.114;-2.066;2022-07-23T03:08:18;9.82;;;4.45;;
63930;SDS011;50111;48.114;-2.066;2022-07-23T03:10:44;4.72;;;3.58;;
63930;SDS011;50111;48.114;-2.066;2022-07-23T03:13:10;5.32;;;3.90;;
63930;SDS011;50111;48.114;-2.066;2022-07-23T03:15:37;13.05;;;4.68;;
63930;SDS011;50111;48.114;-2.066;2022-07-23T03:18:03;7.30;;;3.90;;
63930;SDS011;50111;48.114;-2.066;2022-07-23T03:20:29;6.28;;;3.53;;
63930;SDS011;50111;48.114;-2.066;2022-07-23T03:22:55;4.82;;;3.47;;
63930;SDS011;50111;48.114;-2.066;2022-07-23T03:25:21;4.95;;;3.45;;
63930;SDS011;50111;48.114;-2.066;2022-07-23T03:27:47;7.55;;;4.03;;
63930;SDS011;50111;48.114;-2.066;2022-07-23T03:30:13;6.10;;;3.40;;
63930;SDS011;50111;48.114;-2.066;2022-07-23T03:32:39;8.63;;;4.60;;
63930;SDS011;50111;48.114;-2.066;2022-07-23T03:35:05;7.72;;;4.22;;
63930;SDS011;50111;48.114;-2.066;2022-07-23T03:37:31;6.93;;;4.18;;
63930;SDS011;50111;48.114;-2.066;2022-07-23T03:39:57;7.88;;;4.03;;
63930;SDS011;50111;48.114;-2.066;2022-07-23T03:42:23;7.10;;;4.20;;
63930;SDS011;50111;48.114;-2.066;2022-07-23T03:44:49;6.93;;;3.92;;
63930;SDS011;50111;48.114;-2.066;2022-07-23T03:47:15;6.22;;;3.90;;
63930;SDS011;50111;48.114;-2.066;2022-07-23T03:49:42;8.35;;;4.10;;
63930;SDS011;50111;48.114;-2.066;2022-07-23T03:52:08;7.45;;;4.50;;
63930;SDS011;50111;48.114;-2.066;2022-07-23T03:54:34;6.50;;;4.18;;
63930;SDS011;50111;48.114;-2.066;2022-07-23T03:57:00;7.43;;;4.28;;
63930;SDS011;50111;48.114;-2.066;2022-07-23T03:59:26;9.85;;;4.20;;
63930;SDS011;50111;48.114;-2.066;2022-07-23T04:01:52;7.63;;;3.92;;
63930;SDS011;50111;48.114;-2.066;2022-07-23T04:04:18;8.43;;;4.45;;
63930;SDS011;50111;48.114;-2.066;2022-07-23T04:06:44;8.15;;;4.53;;
63930;SDS011;50111;48.114;-2.066;2022-07-23T04:09:10;7.93;;;4.53;;
63930;SDS011;50111;48.114;-2.066;2022-07-23T04:11:36;12.18;;;4.70;;
63930;SDS011;50111;48.114;-2.066;2022-07-23T04:14:02;9.02;;;4.38;;
63930;SDS011;50111;48.114;-2.066;2022-07-23T04:16:28;6.88;;;4.22;;
63930;SDS011;50111;48.114;-2.066;2022-07-23T04:18:56;8.75;;;4.43;;
63930;SDS011;50111;48.114;-2.066;2022-07-23T04:21:22;6.47;;;3.72;;
63930;SDS011;50111;48.114;-2.066;2022-07-23T04:23:48;6.05;;;3.78;;
63930;SDS011;50111;48.114;-2.066;2022-07-23T04:26:14;10.35;;;4.88;;
63930;SDS011;50111;48.114;-2.066;2022-07-23T04:28:41;5.85;;;4.20;;
63930;SDS011;50111;48.114;-2.066;2022-07-23T04:31:07;5.25;;;3.83;;
63930;SDS011;50111;48.114;-2.066;2022-07-23T04:33:33;8.50;;;4.57;;
63930;SDS011;50111;48.114;-2.066;2022-07-23T04:35:59;7.38;;;4.20;;
63930;SDS011;50111;48.114;-2.066;2022-07-23T04:38:25;7.25;;;3.72;;
63930;SDS011;50111;48.114;-2.066;2022-07-23T04:40:51;8.50;;;4.43;;
63930;SDS011;50111;48.114;-2.066;2022-07-23T04:43:17;7.88;;;4.22;;
63930;SDS011;50111;48.114;-2.066;2022-07-23T04:45:43;8.40;;;4.35;;
63930;SDS011;50111;48.114;-2.066;2022-07-23T04:48:09;5.72;;;3.63;;
63930;SDS011;50111;48.114;-2.066;2022-07-23T04:50:35;7.65;;;4.60;;
63930;SDS011;50111;48.114;-2.066;2022-07-23T04:53:01;6.65;;;4.18;;
63930;SDS011;50111;48.114;-2.066;2022-07-23T04:55:27;6.82;;;4.15;;
63930;SDS011;50111;48.114;-2.066;2022-07-23T04:57:53;11.07;;;4.63;;
63930;SDS011;50111;48.114;-2.066;2022-07-23T05:00:19;7.32;;;4.25;;
63930;SDS011;50111;48.114;-2.066;2022-07-23T05:02:45;4.25;;;3.28;;
63930;SDS011;50111;48.114;-2.066;2022-07-23T05:05:11;6.20;;;3.72;;
63930;SDS011;50111;48.114;-2.066;2022-07-23T05:07:38;9.50;;;3.75;;
63930;SDS011;50111;48.114;-2.066;2022-07-23T05:10:04;6.90;;;3.90;;
63930;SDS011;50111;48.114;-2.066;2022-07-23T05:12:30;9.13;;;4.97;;
63930;SDS011;50111;48.114;-2.066;2022-07-23T05:14:57;6.68;;;4.30;;
63930;SDS011;50111;48.114;-2.066;2022-07-23T05:17:23;6.50;;;3.72;;
63930;SDS011;50111;48.114;-2.066;2022-07-23T05:19:49;8.80;;;4.30;;
63930;SDS011;50111;48.114;-2.066;2022-07-23T05:22:15;8.20;;;4.30;;
63930;SDS011;50111;48.114;-2.066;2022-07-23T05:24:41;9.90;;;4.22;;
63930;SDS011;50111;48.114;-2.066;2022-07-23T05:27:08;7.38;;;3.80;;
63930;SDS011;50111;48.114;-2.066;2022-07-23T05:29:34;5.90;;;3.78;;
63930;SDS011;50111;48.114;-2.066;2022-07-23T05:32:00;8.70;;;4.20;;
63930;SDS011;50111;48.114;-2.066;2022-07-23T05:34:26;6.68;;;4.20;;
63930;SDS011;50111;48.114;-2.066;2022-07-23T05:36:52;7.90;;;4.03;;
63930;SDS011;50111;48.114;-2.066;2022-07-23T05:39:18;7.68;;;4.05;;
63930;SDS011;50111;48.114;-2.066;2022-07-23T05:41:44;7.90;;;4.18;;
63930;SDS011;50111;48.114;-2.066;2022-07-23T05:44:10;7.72;;;4.15;;
63930;SDS011;50111;48.114;-2.066;2022-07-23T05:46:36;11.45;;;4.70;;
63930;SDS011;50111;48.114;-2.066;2022-07-23T05:49:02;6.63;;;4.20;;
63930;SDS011;50111;48.114;-2.066;2022-07-23T05:51:28;8.82;;;4.40;;
63930;SDS011;50111;48.114;-2.066;2022-07-23T05:53:54;8.73;;;5.10;;
63930;SDS011;50111;48.114;-2.066;2022-07-23T05:56:20;6.35;;;3.95;;
63930;SDS011;50111;48.114;-2.066;2022-07-23T05:58:46;5.72;;;4.22;;
63930;SDS011;50111;48.114;-2.066;2022-07-23T06:01:12;7.35;;;3.88;;
63930;SDS011;50111;48.114;-2.066;2022-07-23T06:03:38;6.97;;;3.85;;
63930;SDS011;50111;48.114;-2.066;2022-07-23T06:06:05;5.55;;;3.50;;
63930;SDS011;50111;48.114;-2.066;2022-07-23T06:08:31;7.13;;;3.70;;
63930;SDS011;50111;48.114;-2.066;2022-07-23T06:10:57;9.68;;;3.33;;
63930;SDS011;50111;48.114;-2.066;2022-07-23T06:13:23;6.15;;;3.40;;
63930;SDS011;50111;48.114;-2.066;2022-07-23T06:15:49;6.90;;;2.75;;
63930;SDS011;50111;48.114;-2.066;2022-07-23T06:18:15;3.33;;;2.60;;
63930;SDS011;50111;48.114;-2.066;2022-07-23T06:20:41;6.40;;;2.67;;
63930;SDS011;50111;48.114;-2.066;2022-07-23T06:23:07;4.03;;;2.50;;
63930;SDS011;50111;48.114;-2.066;2022-07-23T06:25:33;4.05;;;2.10;;
63930;SDS011;50111;48.114;-2.066;2022-07-23T06:27:59;4.32;;;2.47;;
63930;SDS011;50111;48.114;-2.066;2022-07-23T06:30:25;5.35;;;2.60;;
63930;SDS011;50111;48.114;-2.066;2022-07-23T06:32:51;4.45;;;2.20;;
63930;SDS011;50111;48.114;-2.066;2022-07-23T06:35:17;4.65;;;2.15;;
63930;SDS011;50111;48.114;-2.066;2022-07-23T06:37:43;5.07;;;2.42;;
63930;SDS011;50111;48.114;-2.066;2022-07-23T06:40:09;5.70;;;2.20;;
63930;SDS011;50111;48.114;-2.066;2022-07-23T06:42:35;5.10;;;2.30;;
63930;SDS011;50111;48.114;-2.066;2022-07-23T06:45:05;3.92;;;2.10;;
63930;SDS011;50111;48.114;-2.066;2022-07-23T06:47:32;4.50;;;2.37;;
63930;SDS011;50111;48.114;-2.066;2022-07-23T06:49:58;5.57;;;2.10;;
63930;SDS011;50111;48.114;-2.066;2022-07-23T06:52:24;5.50;;;2.28;;
63930;SDS011;50111;48.114;-2.066;2022-07-23T06:54:51;4.00;;;2.53;;
63930;SDS011;50111;48.114;-2.066;2022-07-23T06:57:17;4.38;;;1.95;;
63930;SDS011;50111;48.114;-2.066;2022-07-23T06:59:43;5.05;;;3.03;;
63930;SDS011;50111;48.114;-2.066;2022-07-23T07:02:09;4.20;;;2.15;;
63930;SDS011;50111;48.114;-2.066;2022-07-23T07:04:35;4.28;;;2.20;;
63930;SDS011;50111;48.114;-2.066;2022-07-23T07:07:01;6.35;;;2.08;;
63930;SDS011;50111;48.114;-2.066;2022-07-23T07:09:27;6.80;;;2.35;;
63930;SDS011;50111;48.114;-2.066;2022-07-23T07:11:53;4.40;;;2.10;;
63930;SDS011;50111;48.114;-2.066;2022-07-23T07:14:19;4.25;;;2.63;;
63930;SDS011;50111;48.114;-2.066;2022-07-23T07:16:45;4.55;;;2.03;;
63930;SDS011;50111;48.114;-2.066;2022-07-23T07:19:11;4.32;;;2.15;;
63930;SDS011;50111;48.114;-2.066;2022-07-23T07:21:37;4.70;;;2.25;;
63930;SDS011;50111;48.114;-2.066;2022-07-23T07:24:04;5.85;;;2.35;;
63930;SDS011;50111;48.114;-2.066;2022-07-23T07:26:30;3.25;;;2.13;;
63930;SDS011;50111;48.114;-2.066;2022-07-23T07:28:56;5.72;;;2.33;;
63930;SDS011;50111;48.114;-2.066;2022-07-23T07:31:22;3.05;;;2.10;;
63930;SDS011;50111;48.114;-2.066;2022-07-23T07:33:48;4.93;;;2.60;;
63930;SDS011;50111;48.114;-2.066;2022-07-23T07:36:14;4.35;;;2.35;;
63930;SDS011;50111;48.114;-2.066;2022-07-23T07:38:40;3.13;;;1.92;;
63930;SDS011;50111;48.114;-2.066;2022-07-23T07:41:06;2.60;;;2.25;;
63930;SDS011;50111;48.114;-2.066;2022-07-23T07:43:35;3.92;;;2.40;;
63930;SDS011;50111;48.114;-2.066;2022-07-23T07:46:01;4.25;;;2.22;;
63930;SDS011;50111;48.114;-2.066;2022-07-23T07:48:27;5.10;;;2.38;;
63930;SDS011;50111;48.114;-2.066;2022-07-23T07:50:53;5.68;;;2.10;;
63930;SDS011;50111;48.114;-2.066;2022-07-23T07:53:19;4.47;;;2.22;;
63930;SDS011;50111;48.114;-2.066;2022-07-23T07:55:45;4.22;;;2.20;;
63930;SDS011;50111;48.114;-2.066;2022-07-23T07:58:11;4.25;;;2.30;;
63930;SDS011;50111;48.114;-2.066;2022-07-23T08:00:37;3.53;;;2.00;;
63930;SDS011;50111;48.114;-2.066;2022-07-23T08:03:03;3.92;;;1.95;;
63930;SDS011;50111;48.114;-2.066;2022-07-23T08:05:30;6.13;;;2.40;;
63930;SDS011;50111;48.114;-2.066;2022-07-23T08:07:56;5.97;;;2.50;;
63930;SDS011;50111;48.114;-2.066;2022-07-23T08:10:23;6.22;;;2.20;;
63930;SDS011;50111;48.114;-2.066;2022-07-23T08:12:51;6.13;;;2.42;;
63930;SDS011;50111;48.114;-2.066;2022-07-23T08:15:19;3.63;;;2.03;;
63930;SDS011;50111;48.114;-2.066;2022-07-23T08:17:45;3.67;;;2.00;;
63930;SDS011;50111;48.114;-2.066;2022-07-23T08:20:12;5.22;;;2.40;;
63930;SDS011;50111;48.114;-2.066;2022-07-23T08:22:45;3.58;;;1.80;;
63930;SDS011;50111;48.114;-2.066;2022-07-23T08:25:12;3.55;;;2.20;;
63930;SDS011;50111;48.114;-2.066;2022-07-23T08:27:38;4.38;;;1.80;;
63930;SDS011;50111;48.114;-2.066;2022-07-23T08:30:04;4.13;;;1.83;;
63930;SDS011;50111;48.114;-2.066;2022-07-23T08:32:30;4.95;;;1.83;;
63930;SDS011;50111;48.114;-2.066;2022-07-23T08:34:56;2.17;;;1.52;;
63930;SDS011;50111;48.114;-2.066;2022-07-23T08:37:22;3.67;;;1.75;;
63930;SDS011;50111;48.114;-2.066;2022-07-23T08:39:48;2.75;;;1.67;;
63930;SDS011;50111;48.114;-2.066;2022-07-23T08:42:14;3.55;;;1.70;;
63930;SDS011;50111;48.114;-2.066;2022-07-23T08:44:41;4.47;;;1.73;;
63930;SDS011;50111;48.114;-2.066;2022-07-23T08:47:10;2.70;;;1.50;;
63930;SDS011;50111;48.114;-2.066;2022-07-23T08:49:37;3.22;;;1.40;;
63930;SDS011;50111;48.114;-2.066;2022-07-23T08:52:04;2.75;;;1.50;;
63930;SDS011;50111;48.114;-2.066;2022-07-23T08:54:31;2.85;;;1.73;;
63930;SDS011;50111;48.114;-2.066;2022-07-23T08:56:57;2.22;;;1.52;;
63930;SDS011;50111;48.114;-2.066;2022-07-23T08:59:23;2.60;;;1.30;;
63930;SDS011;50111;48.114;-2.066;2022-07-23T09:01:51;4.57;;;1.52;;
63930;SDS011;50111;48.114;-2.066;2022-07-23T09:04:17;2.80;;;1.58;;
63930;SDS011;50111;48.114;-2.066;2022-07-23T09:06:43;1.92;;;1.45;;
63930;SDS011;50111;48.114;-2.066;2022-07-23T09:09:19;2.83;;;1.20;;
63930;SDS011;50111;48.114;-2.066;2022-07-23T09:11:45;4.00;;;1.50;;
63930;SDS011;50111;48.114;-2.066;2022-07-23T09:14:12;2.20;;;1.50;;
63930;SDS011;50111;48.114;-2.066;2022-07-23T09:16:38;4.20;;;1.77;;
63930;SDS011;50111;48.114;-2.066;2022-07-23T09:19:05;3.28;;;1.65;;
63930;SDS011;50111;48.114;-2.066;2022-07-23T09:21:35;2.05;;;1.40;;
63930;SDS011;50111;48.114;-2.066;2022-07-23T09:24:11;3.83;;;1.60;;
63930;SDS011;50111;48.114;-2.066;2022-07-23T09:26:44;2.53;;;1.50;;
63930;SDS011;50111;48.114;-2.066;2022-07-23T09:29:19;2.53;;;1.38;;
63930;SDS011;50111;48.114;-2.066;2022-07-23T09:36:38;2.13;;;1.42;;
63930;SDS011;50111;48.114;-2.066;2022-07-23T09:39:05;4.00;;;1.50;;
63930;SDS011;50111;48.114;-2.066;2022-07-23T09:41:41;3.40;;;1.33;;
63930;SDS011;50111;48.114;-2.066;2022-07-23T09:44:18;2.65;;;1.33;;
63930;SDS011;50111;48.114;-2.066;2022-07-23T09:46:47;3.42;;;1.50;;
63930;SDS011;50111;48.114;-2.066;2022-07-23T09:49:20;1.73;;;1.25;;
63930;SDS011;50111;48.114;-2.066;2022-07-23T09:51:54;3.08;;;1.55;;
63930;SDS011;50111;48.114;-2.066;2022-07-23T09:56:48;2.33;;;1.45;;
63930;SDS011;50111;48.114;-2.066;2022-07-23T09:59:14;3.25;;;1.42;;
63930;SDS011;50111;48.114;-2.066;2022-07-23T10:01:43;2.20;;;1.30;;
63930;SDS011;50111;48.114;-2.066;2022-07-23T10:04:10;2.10;;;1.30;;
63930;SDS011;50111;48.114;-2.066;2022-07-23T10:06:36;2.05;;;1.30;;
63930;SDS011;50111;48.114;-2.066;2022-07-23T10:09:03;2.05;;;1.40;;
63930;SDS011;50111;48.114;-2.066;2022-07-23T10:11:30;1.95;;;1.20;;
63930;SDS011;50111;48.114;-2.066;2022-07-23T10:13:56;4.50;;;1.80;;
63930;SDS011;50111;48.114;-2.066;2022-07-23T10:16:24;2.97;;;1.40;;
63930;SDS011;50111;48.114;-2.066;2022-07-23T10:18:51;1.98;;;1.30;;
63930;SDS011;50111;48.114;-2.066;2022-07-23T10:32:08;1.95;;;1.48;;
63930;SDS011;50111;48.114;-2.066;2022-07-23T10:39:34;2.35;;;1.30;;
63930;SDS011;50111;48.114;-2.066;2022-07-23T10:42:13;2.28;;;1.65;;
63930;SDS011;50111;48.114;-2.066;2022-07-23T10:44:40;5.65;;;1.38;;
63930;SDS011;50111;48.114;-2.066;2022-07-23T10:47:08;3.22;;;1.45;;
63930;SDS011;50111;48.114;-2.066;2022-07-23T10:49:53;2.10;;;1.10;;
63930;SDS011;50111;48.114;-2.066;2022-07-23T10:52:20;3.80;;;1.65;;
63930;SDS011;50111;48.114;-2.066;2022-07-23T10:54:50;2.90;;;1.45;;
63930;SDS011;50111;48.114;-2.066;2022-07-23T10:57:26;9.27;;;2.30;;
63930;SDS011;50111;48.114;-2.066;2022-07-23T11:02:44;1.95;;;1.35;;
63930;SDS011;50111;48.114;-2.066;2022-07-23T11:05:14;4.38;;;1.52;;
63930;SDS011;50111;48.114;-2.066;2022-07-23T11:10:35;2.22;;;1.58;;
63930;SDS011;50111;48.114;-2.066;2022-07-23T11:31:55;3.40;;;1.45;;
63930;SDS011;50111;48.114;-2.066;2022-07-23T11:34:40;3.58;;;1.27;;
63930;SDS011;50111;48.114;-2.066;2022-07-23T11:37:08;1.73;;;1.25;;
63930;SDS011;50111;48.114;-2.066;2022-07-23T11:39:34;2.15;;;1.20;;
63930;SDS011;50111;48.114;-2.066;2022-07-23T11:42:01;1.58;;;1.10;;
63930;SDS011;50111;48.114;-2.066;2022-07-23T11:47:04;2.28;;;1.08;;
63930;SDS011;50111;48.114;-2.066;2022-07-23T11:49:30;1.92;;;1.20;;
63930;SDS011;50111;48.114;-2.066;2022-07-23T11:54:32;1.55;;;1.30;;
63930;SDS011;50111;48.114;-2.066;2022-07-23T11:56:59;1.10;;;1.00;;
63930;SDS011;50111;48.114;-2.066;2022-07-23T11:59:29;1.27;;;1.10;;
63930;SDS011;50111;48.114;-2.066;2022-07-23T12:02:00;2.03;;;1.33;;
63930;SDS011;50111;48.114;-2.066;2022-07-23T12:04:38;1.77;;;1.30;;
63930;SDS011;50111;48.114;-2.066;2022-07-23T12:07:21;2.33;;;1.25;;
63930;SDS011;50111;48.114;-2.066;2022-07-23T12:09:48;3.53;;;1.20;;
63930;SDS011;50111;48.114;-2.066;2022-07-23T12:12:14;1.25;;;1.00;;
63930;SDS011;50111;48.114;-2.066;2022-07-23T12:14:54;4.63;;;1.30;;
63930;SDS011;50111;48.114;-2.066;2022-07-23T12:17:20;1.70;;;1.30;;
63930;SDS011;50111;48.114;-2.066;2022-07-23T12:19:47;1.13;;;1.00;;
63930;SDS011;50111;48.114;-2.066;2022-07-23T12:22:14;1.83;;;1.15;;
63930;SDS011;50111;48.114;-2.066;2022-07-23T12:24:56;1.15;;;1.00;;
63930;SDS011;50111;48.114;-2.066;2022-07-23T12:27:23;1.10;;;1.00;;
63930;SDS011;50111;48.114;-2.066;2022-07-23T12:29:49;1.20;;;1.00;;
63930;SDS011;50111;48.114;-2.066;2022-07-23T12:32:19;1.55;;;1.00;;
63930;SDS011;50111;48.114;-2.066;2022-07-23T12:34:45;2.33;;;1.10;;
63930;SDS011;50111;48.114;-2.066;2022-07-23T12:37:27;2.25;;;1.20;;
63930;SDS011;50111;48.114;-2.066;2022-07-23T12:39:53;0.98;;;0.98;;
63930;SDS011;50111;48.114;-2.066;2022-07-23T12:42:19;4.30;;;1.10;;
63930;SDS011;50111;48.114;-2.066;2022-07-23T12:47:30;0.85;;;0.85;;
63930;SDS011;50111;48.114;-2.066;2022-07-23T12:49:56;2.53;;;1.00;;
63930;SDS011;50111;48.114;-2.066;2022-07-23T12:52:22;3.00;;;1.15;;
63930;SDS011;50111;48.114;-2.066;2022-07-23T12:54:48;1.20;;;1.08;;
63930;SDS011;50111;48.114;-2.066;2022-07-23T12:57:14;2.60;;;1.20;;
63930;SDS011;50111;48.114;-2.066;2022-07-23T12:59:40;2.47;;;1.20;;
63930;SDS011;50111;48.114;-2.066;2022-07-23T13:02:07;1.38;;;1.27;;
63930;SDS011;50111;48.114;-2.066;2022-07-23T13:04:34;2.47;;;1.25;;
63930;SDS011;50111;48.114;-2.066;2022-07-23T13:07:00;1.20;;;1.10;;
63930;SDS011;50111;48.114;-2.066;2022-07-23T13:09:27;1.70;;;1.20;;
63930;SDS011;50111;48.114;-2.066;2022-07-23T13:11:54;2.15;;;1.42;;
63930;SDS011;50111;48.114;-2.066;2022-07-23T13:14:20;1.45;;;1.20;;
63930;SDS011;50111;48.114;-2.066;2022-07-23T13:16:47;1.40;;;1.20;;
63930;SDS011;50111;48.114;-2.066;2022-07-23T13:19:14;1.63;;;1.30;;
63930;SDS011;50111;48.114;-2.066;2022-07-23T13:21:40;2.78;;;1.30;;
63930;SDS011;50111;48.114;-2.066;2022-07-23T13:24:07;2.15;;;1.20;;
63930;SDS011;50111;48.114;-2.066;2022-07-23T13:26:34;1.40;;;1.30;;
63930;SDS011;50111;48.114;-2.066;2022-07-23T13:29:00;2.53;;;1.40;;
63930;SDS011;50111;48.114;-2.066;2022-07-23T13:31:26;2.47;;;1.30;;
63930;SDS011;50111;48.114;-2.066;2022-07-23T13:33:52;2.28;;;1.20;;
63930;SDS011;50111;48.114;-2.066;2022-07-23T13:36:18;1.80;;;1.10;;
63930;SDS011;50111;48.114;-2.066;2022-07-23T13:38:44;1.42;;;1.33;;
63930;SDS011;50111;48.114;-2.066;2022-07-23T13:41:10;1.52;;;1.27;;
63930;SDS011;50111;48.114;-2.066;2022-07-23T13:43:36;1.58;;;1.30;;
63930;SDS011;50111;48.114;-2.066;2022-07-23T13:46:02;2.05;;;1.17;;
63930;SDS011;50111;48.114;-2.066;2022-07-23T13:48:28;2.05;;;1.40;;
63930;SDS011;50111;48.114;-2.066;2022-07-23T13:50:55;2.22;;;1.17;;
63930;SDS011;50111;48.114;-2.066;2022-07-23T13:53:22;1.83;;;1.27;;
63930;SDS011;50111;48.114;-2.066;2022-07-23T13:55:49;2.35;;;1.20;;
63930;SDS011;50111;48.114;-2.066;2022-07-23T13:58:16;2.35;;;1.20;;
63930;SDS011;50111;48.114;-2.066;2022-07-23T14:00:43;1.48;;;1.38;;
63930;SDS011;50111;48.114;-2.066;2022-07-23T14:03:09;2.13;;;1.20;;
63930;SDS011;50111;48.114;-2.066;2022-07-23T14:05:35;1.67;;;1.40;;
63930;SDS011;50111;48.114;-2.066;2022-07-23T14:08:02;2.90;;;1.40;;
63930;SDS011;50111;48.114;-2.066;2022-07-23T14:10:28;1.77;;;1.30;;
63930;SDS011;50111;48.114;-2.066;2022-07-23T14:12:55;1.38;;;1.25;;
63930;SDS011;50111;48.114;-2.066;2022-07-23T14:15:23;1.50;;;1.33;;
63930;SDS011;50111;48.114;-2.066;2022-07-23T14:17:49;1.33;;;1.10;;
63930;SDS011;50111;48.114;-2.066;2022-07-23T14:20:15;1.40;;;1.27;;
63930;SDS011;50111;48.114;-2.066;2022-07-23T14:22:42;1.63;;;1.30;;
63930;SDS011;50111;48.114;-2.066;2022-07-23T14:25:09;2.15;;;1.20;;
63930;SDS011;50111;48.114;-2.066;2022-07-23T14:27:35;1.65;;;1.42;;
63930;SDS011;50111;48.114;-2.066;2022-07-23T14:30:02;3.17;;;1.30;;
63930;SDS011;50111;48.114;-2.066;2022-07-23T14:32:28;2.97;;;1.48;;
63930;SDS011;50111;48.114;-2.066;2022-07-23T14:34:55;2.38;;;1.40;;
63930;SDS011;50111;48.114;-2.066;2022-07-23T14:37:21;1.75;;;1.52;;
63930;SDS011;50111;48.114;-2.066;2022-07-23T14:39:47;1.55;;;1.38;;
63930;SDS011;50111;48.114;-2.066;2022-07-23T14:42:13;1.65;;;1.55;;
63930;SDS011;50111;48.114;-2.066;2022-07-23T14:44:39;1.30;;;1.20;;
63930;SDS011;50111;48.114;-2.066;2022-07-23T14:47:08;2.03;;;1.58;;
63930;SDS011;50111;48.114;-2.066;2022-07-23T14:49:34;2.78;;;1.33;;
63930;SDS011;50111;48.114;-2.066;2022-07-23T14:52:01;3.47;;;1.20;;
63930;SDS011;50111;48.114;-2.066;2022-07-23T14:54:27;2.05;;;1.23;;
63930;SDS011;50111;48.114;-2.066;2022-07-23T14:56:54;1.35;;;1.25;;
63930;SDS011;50111;48.114;-2.066;2022-07-23T14:59:20;1.55;;;1.33;;
63930;SDS011;50111;48.114;-2.066;2022-07-23T15:01:47;1.40;;;1.30;;
63930;SDS011;50111;48.114;-2.066;2022-07-23T15:04:14;1.73;;;1.40;;
63930;SDS011;50111;48.114;-2.066;2022-07-23T15:06:40;1.63;;;1.50;;
63930;SDS011;50111;48.114;-2.066;2022-07-23T15:09:06;2.28;;;1.38;;
63930;SDS011;50111;48.114;-2.066;2022-07-23T15:11:32;1.30;;;1.20;;
63930;SDS011;50111;48.114;-2.066;2022-07-23T15:14:02;2.78;;;1.00;;
63930;SDS011;50111;48.114;-2.066;2022-07-23T15:16:28;1.27;;;1.17;;
63930;SDS011;50111;48.114;-2.066;2022-07-23T15:18:55;2.22;;;1.30;;
63930;SDS011;50111;48.114;-2.066;2022-07-23T15:21:21;2.03;;;1.40;;
63930;SDS011;50111;48.114;-2.066;2022-07-23T15:23:47;3.15;;;1.60;;
63930;SDS011;50111;48.114;-2.066;2022-07-23T15:26:13;2.13;;;1.30;;
63930;SDS011;50111;48.114;-2.066;2022-07-23T15:28:40;1.83;;;1.50;;